Time;durP1;ratioP1;P1;durP2;ratioP2;P2;SDS_P1;SDS_P2;PMS_P1;PMS_P2;Temp;Humidity;BMP_temperature;BMP_pressure;BME280_temperature;BME280_humidity;BME280_pressure;Samples;Min_cycle;Max_cycle;Signal;HPM_P1;HPM_P2
2022/09/16 00:00:24;;;;;;;45.55;18.27;;;;;;;;;;6210464;28;20412;-56
2022/09/16 00:03:46;;;;;;;46.05;18.35;;;;;;;;;;6210040;28;20046;-54
2022/09/16 00:06:46;;;;;;;40.10;17.15;;;;;;;;;;6210916;28;20046;-62
2022/09/16 00:09:47;;;;;;;41.42;16.95;;;;;;;;;;6209939;28;20111;-63
2022/09/16 00:12:48;;;;;;;43.08;18.40;;;;;;;;;;6214884;28;20409;-52
2022/09/16 00:15:52;;;;;;;;;;;;;;;;;;6216816;28;20056;-60
2022/09/16 00:18:57;;;;;;;40.17;16.40;;;;;;;;;;6216382;28;19925;-64
2022/09/16 00:21:58;;;;;;;41.15;17.92;;;;;;;;;;6214709;28;20053;-63
2022/09/16 00:24:58;;;;;;;43.17;17.48;;;;;;;;;;6210643;28;20029;-56
2022/09/16 00:27:59;;;;;;;43.33;18.55;;;;;;;;;;6211504;28;20520;-55
2022/09/16 00:31:01;;;;;;;43.47;17.65;;;;;;;;;;6209099;28;20042;-53
2022/09/16 00:34:02;;;;;;;39.70;17.23;;;;;;;;;;6209413;28;20045;-55
2022/09/16 00:37:03;;;;;;;38.42;16.58;;;;;;;;;;6210077;28;20057;-55
2022/09/16 00:40:04;;;;;;;38.80;16.20;;;;;;;;;;6209793;28;20081;-53
2022/09/16 00:43:10;;;;;;;43.35;16.63;;;;;;;;;;6210307;28;20062;-54
2022/09/16 00:46:11;;;;;;;43.10;16.67;;;;;;;;;;6210914;28;20050;-56
2022/09/16 00:49:17;;;;;;;40.55;16.92;;;;;;;;;;6207837;28;20130;-58
2022/09/16 00:52:19;;;;;;;42.55;17.52;;;;;;;;;;6211209;28;20184;-58
2022/09/16 00:55:24;;;;;;;42.92;16.23;;;;;;;;;;6210121;28;20046;-51
2022/09/16 00:58:37;;;;;;;41.08;15.93;;;;;;;;;;6209936;28;20038;-64
2022/09/16 01:01:38;;;;;;;46.15;16.33;;;;;;;;;;6208207;28;20045;-62
2022/09/16 01:04:52;;;;;;;37.88;15.20;;;;;;;;;;6210183;28;20141;-54
2022/09/16 01:07:53;;;;;;;44.88;15.20;;;;;;;;;;6213379;28;20053;-50
2022/09/16 01:10:54;;;;;;;34.83;15.20;;;;;;;;;;6212461;28;20053;-51
2022/09/16 01:14:51;;;;;;;37.63;14.45;;;;;;;;;;6213359;28;20497;-58
2022/09/16 01:17:38;;;;;;;38.55;15.00;;;;;;;;;;6214209;28;20570;-60
2022/09/16 01:20:57;;;;;;;;;;;;;;;;;;6216138;28;20092;-56
2022/09/16 01:24:16;;;;;;;39.55;15.18;;;;;;;;;;6216078;28;20446;-50
2022/09/16 01:27:31;;;;;;;39.60;15.65;;;;;;;;;;6212932;28;20053;-64
2022/09/16 01:30:52;;;;;;;36.17;16.23;;;;;;;;;;6220893;28;20049;-65
2022/09/16 01:34:21;;;;;;;33.10;14.98;;;;;;;;;;6221208;28;20064;-61
2022/09/16 01:37:41;;;;;;;36.45;15.02;;;;;;;;;;6214542;28;20129;-53
2022/09/16 01:41:23;;;;;;;40.00;16.13;;;;;;;;;;6212797;28;20057;-60
2022/09/16 01:44:57;;;;;;;38.50;14.80;;;;;;;;;;6212702;28;20147;-53
2022/09/16 01:48:24;;;;;;;40.13;15.68;;;;;;;;;;6206562;28;21464;-58
2022/09/16 01:51:40;;;;;;;41.88;18.25;;;;;;;;;;6213639;28;20133;-66
2022/09/16 01:54:55;;;;;;;36.13;14.50;;;;;;;;;;6213669;28;20057;-54
2022/09/16 01:58:19;;;;;;;39.45;15.43;;;;;;;;;;6211474;28;20592;-65
2022/09/16 02:01:53;;;;;;;36.20;14.68;;;;;;;;;;6199873;28;20622;-62
2022/09/16 02:04:56;;;;;;;35.47;15.02;;;;;;;;;;6189464;28;20141;-59
2022/09/16 02:08:02;;;;;;;30.65;14.45;;;;;;;;;;6212018;28;20107;-54
2022/09/16 02:11:08;;;;;;;32.92;14.52;;;;;;;;;;6213205;28;20410;-68
2022/09/16 02:14:17;;;;;;;26.83;12.95;;;;;;;;;;6211829;28;20496;-53
2022/09/16 02:17:22;;;;;;;36.85;14.55;;;;;;;;;;6212288;28;20136;-63
2022/09/16 02:20:26;;;;;;;31.92;13.65;;;;;;;;;;6214692;28;20144;-50
2022/09/16 02:23:39;;;;;;;31.88;13.73;;;;;;;;;;6211010;28;20493;-50
2022/09/16 02:26:43;;;;;;;31.50;13.82;;;;;;;;;;6210531;28;20042;-56
2022/09/16 02:29:49;;;;;;;32.70;12.75;;;;;;;;;;6213073;28;20577;-62
2022/09/16 02:32:56;;;;;;;26.92;12.38;;;;;;;;;;6212671;28;20065;-57
2022/09/16 02:35:58;;;;;;;27.20;11.88;;;;;;;;;;6209621;28;20182;-64
2022/09/16 02:39:06;;;;;;;32.47;12.32;;;;;;;;;;6212610;28;20483;-57
2022/09/16 02:42:07;;;;;;;29.92;11.32;;;;;;;;;;6213098;28;20464;-66
2022/09/16 02:45:08;;;;;;;27.05;11.27;;;;;;;;;;6211449;28;20056;-54
2022/09/16 02:48:19;;;;;;;29.77;12.87;;;;;;;;;;6212416;28;20038;-64
2022/09/16 02:51:20;;;;;;;26.77;11.00;;;;;;;;;;6211181;28;20486;-61
2022/09/16 02:54:27;;;;;;;21.52;10.43;;;;;;;;;;6212949;28;20099;-63
2022/09/16 02:57:28;;;;;;;24.25;10.85;;;;;;;;;;6209479;28;20033;-63
2022/09/16 03:00:32;;;;;;;25.45;10.75;;;;;;;;;;6212474;28;20520;-57
2022/09/16 03:03:33;;;;;;;23.25;10.40;;;;;;;;;;6212904;28;20058;-56
2022/09/16 03:06:35;;;;;;;22.02;10.38;;;;;;;;;;6210514;28;20065;-52
2022/09/16 03:09:38;;;;;;;29.08;11.20;;;;;;;;;;6216296;28;20077;-59
2022/09/16 03:12:42;;;;;;;24.20;10.80;;;;;;;;;;6213179;28;20141;-62
2022/09/16 03:15:51;;;;;;;24.35;10.90;;;;;;;;;;6213225;28;20527;-65
2022/09/16 03:19:04;;;;;;;25.58;10.43;;;;;;;;;;6211702;28;20086;-61
2022/09/16 03:22:43;;;;;;;27.17;10.32;;;;;;;;;;6212047;28;20053;-51
2022/09/16 03:26:10;;;;;;;22.08;9.88;;;;;;;;;;6211508;28;22888;-58
2022/09/16 03:29:35;;;;;;;25.73;10.30;;;;;;;;;;6211384;28;20084;-61
2022/09/16 03:32:44;;;;;;;22.90;9.52;;;;;;;;;;6215173;28;20050;-53
2022/09/16 03:35:48;;;;;;;27.02;9.32;;;;;;;;;;6212401;28;20050;-60
2022/09/16 03:38:52;;;;;;;21.55;8.90;;;;;;;;;;6212110;28;20409;-65
2022/09/16 03:41:54;;;;;;;20.95;8.07;;;;;;;;;;6211423;28;20532;-63
2022/09/16 03:44:55;;;;;;;16.48;8.32;;;;;;;;;;6212163;28;20086;-49
2022/09/16 03:47:55;;;;;;;19.60;7.53;;;;;;;;;;6211132;28;20523;-55
2022/09/16 03:50:56;;;;;;;17.05;7.53;;;;;;;;;;6212914;28;20054;-65
2022/09/16 03:53:56;;;;;;;18.67;7.97;;;;;;;;;;6210828;28;20052;-54
2022/09/16 03:56:57;;;;;;;17.30;7.70;;;;;;;;;;6210873;28;20037;-62
2022/09/16 03:59:57;;;;;;;17.48;7.55;;;;;;;;;;6210244;28;20079;-62
2022/09/16 04:02:59;;;;;;;17.48;7.55;;;;;;;;;;6213490;28;20405;-61
2022/09/16 04:05:59;;;;;;;16.07;7.57;;;;;;;;;;6208442;28;20050;-55
2022/09/16 04:09:05;;;;;;;20.90;7.82;;;;;;;;;;6211591;28;21766;-62
2022/09/16 04:12:06;;;;;;;21.23;7.47;;;;;;;;;;6208033;28;20168;-65
2022/09/16 04:15:07;;;;;;;14.70;7.03;;;;;;;;;;6209056;28;20043;-62
2022/09/16 04:18:07;;;;;;;15.27;7.30;;;;;;;;;;6211224;28;20132;-61
2022/09/16 04:21:08;;;;;;;15.32;6.82;;;;;;;;;;6207987;28;20050;-65
2022/09/16 04:24:09;;;;;;;17.63;7.40;;;;;;;;;;6209623;28;20045;-56
2022/09/16 04:27:09;;;;;;;15.43;6.80;;;;;;;;;;6214536;28;20487;-58
2022/09/16 04:30:11;;;;;;;20.48;7.53;;;;;;;;;;6212419;28;20796;-55
2022/09/16 04:33:11;;;;;;;14.32;6.90;;;;;;;;;;6221492;28;20049;-65
2022/09/16 04:36:17;;;;;;;15.50;7.80;;;;;;;;;;6213131;28;20056;-64
2022/09/16 04:39:18;;;;;;;17.30;6.45;;;;;;;;;;6207717;28;20139;-51
2022/09/16 04:42:18;;;;;;;15.70;6.28;;;;;;;;;;6207534;28;20580;-65
2022/09/16 04:45:20;;;;;;;18.73;7.00;;;;;;;;;;6213073;28;20080;-60
2022/09/16 04:48:20;;;;;;;18.52;8.65;;;;;;;;;;6215214;28;20042;-56
2022/09/16 04:51:22;;;;;;;18.58;7.32;;;;;;;;;;6216004;28;20115;-64
2022/09/16 04:54:22;;;;;;;16.15;6.78;;;;;;;;;;6212505;28;20177;-54
2022/09/16 04:57:23;;;;;;;16.33;7.00;;;;;;;;;;6210267;28;20054;-64
2022/09/16 05:00:24;;;;;;;18.25;6.63;;;;;;;;;;6207563;28;20478;-64
2022/09/16 05:03:25;;;;;;;12.07;6.05;;;;;;;;;;6205128;28;20038;-54
2022/09/16 05:06:32;;;;;;;14.80;6.43;;;;;;;;;;6209748;28;20096;-60
2022/09/16 05:09:33;;;;;;;17.55;6.50;;;;;;;;;;6211048;28;20056;-55
2022/09/16 05:12:33;;;;;;;16.67;6.68;;;;;;;;;;6211493;28;20045;-65
2022/09/16 05:15:34;;;;;;;24.05;7.80;;;;;;;;;;6208443;28;21563;-63
2022/09/16 05:18:36;;;;;;;18.63;7.10;;;;;;;;;;6210222;28;20132;-62
2022/09/16 05:21:37;;;;;;;17.75;8.07;;;;;;;;;;6208232;28;20753;-56
2022/09/16 05:24:38;;;;;;;27.23;8.38;;;;;;;;;;6209497;28;20647;-52
2022/09/16 05:27:39;;;;;;;23.77;11.63;;;;;;;;;;6207752;28;20582;-53
2022/09/16 05:30:39;;;;;;;34.20;15.68;;;;;;;;;;6209407;28;20065;-64
2022/09/16 05:33:43;;;;;;;23.48;11.73;;;;;;;;;;6206400;28;20560;-55
2022/09/16 05:36:46;;;;;;;103.40;52.33;;;;;;;;;;6207765;28;20053;-54
2022/09/16 05:39:47;;;;;;;35.03;15.68;;;;;;;;;;6207035;28;20057;-56
2022/09/16 05:42:48;;;;;;;37.70;17.25;;;;;;;;;;6207080;28;20046;-51
2022/09/16 05:45:53;;;;;;;36.78;14.70;;;;;;;;;;6209307;28;20050;-52
2022/09/16 05:48:53;;;;;;;39.05;14.98;;;;;;;;;;6208334;28;20046;-53
2022/09/16 05:51:54;;;;;;;42.90;17.52;;;;;;;;;;6207036;28;20053;-61
2022/09/16 05:54:54;;;;;;;37.10;16.83;;;;;;;;;;6217802;28;20050;-64
2022/09/16 05:57:55;;;;;;;46.47;18.52;;;;;;;;;;6219405;28;20408;-53
2022/09/16 06:01:07;;;;;;;53.42;20.92;;;;;;;;;;6220630;28;20049;-63
2022/09/16 06:04:12;;;;;;;50.13;21.70;;;;;;;;;;6212078;28;20145;-54
2022/09/16 06:07:13;;;;;;;52.00;21.25;;;;;;;;;;6213019;28;20045;-51
2022/09/16 06:10:13;;;;;;;63.03;25.92;;;;;;;;;;6212901;28;20045;-55
2022/09/16 06:13:14;;;;;;;62.25;27.23;;;;;;;;;;6212186;28;20056;-63
2022/09/16 06:16:14;;;;;;;57.60;24.15;;;;;;;;;;6212617;28;20504;-57
2022/09/16 06:19:17;;;;;;;54.97;24.90;;;;;;;;;;6212624;28;20049;-56
2022/09/16 06:22:18;;;;;;;47.45;19.35;;;;;;;;;;6212407;28;20152;-54
2022/09/16 06:25:18;;;;;;;46.58;20.42;;;;;;;;;;6212705;28;20142;-63
2022/09/16 06:28:19;;;;;;;42.15;18.30;;;;;;;;;;6213172;28;20052;-53
2022/09/16 06:31:22;;;;;;;47.78;18.25;;;;;;;;;;6212972;28;20136;-53
2022/09/16 06:34:23;;;;;;;42.38;17.70;;;;;;;;;;6210046;28;20411;-50
2022/09/16 06:37:25;;;;;;;38.75;16.65;;;;;;;;;;6211812;28;20044;-50
2022/09/16 06:40:25;;;;;;;42.33;17.20;;;;;;;;;;6211740;28;20141;-51
2022/09/16 06:43:26;;;;;;;45.38;16.88;;;;;;;;;;6210563;28;20061;-56
2022/09/16 06:46:28;;;;;;;41.58;18.02;;;;;;;;;;6209119;28;20085;-65
2022/09/16 06:49:28;;;;;;;44.40;17.38;;;;;;;;;;6212390;28;20042;-49
2022/09/16 06:52:30;;;;;;;47.08;18.25;;;;;;;;;;6211157;28;20501;-55
2022/09/16 06:55:30;;;;;;;37.72;15.68;;;;;;;;;;6210847;28;20062;-49
2022/09/16 06:58:32;;;;;;;47.50;16.88;;;;;;;;;;6212208;28;21046;-57
2022/09/16 07:01:33;;;;;;;;;;;;;;;;;;6214450;28;20914;-49
2022/09/16 07:04:34;;;;;;;37.83;16.27;;;;;;;;;;6214627;28;19932;-49
2022/09/16 07:07:35;;;;;;;38.27;15.23;;;;;;;;;;6211914;28;20061;-59
2022/09/16 07:10:36;;;;;;;39.83;17.10;;;;;;;;;;6211573;28;20437;-54
2022/09/16 07:13:36;;;;;;;42.85;16.85;;;;;;;;;;6211529;28;20138;-62
2022/09/16 07:16:37;;;;;;;39.97;17.65;;;;;;;;;;6211549;28;20066;-56
2022/09/16 07:19:37;;;;;;;41.70;16.63;;;;;;;;;;6212154;28;20042;-50
2022/09/16 07:22:38;;;;;;;40.85;16.65;;;;;;;;;;6214504;28;20492;-54
2022/09/16 07:25:39;;;;;;;38.83;16.25;;;;;;;;;;6215582;28;20088;-51
2022/09/16 07:28:41;;;;;;;38.75;16.67;;;;;;;;;;6216798;28;20504;-52
2022/09/16 07:31:41;;;;;;;;;;;;;;;;;;6217811;28;20076;-50
2022/09/16 07:34:42;;;;;;;42.55;18.42;;;;;;;;;;6214880;28;19925;-50
2022/09/16 07:37:42;;;;;;;43.88;17.00;;;;;;;;;;6216730;28;20045;-50
2022/09/16 07:40:43;;;;;;;34.58;16.60;;;;;;;;;;6216505;28;20100;-52
2022/09/16 07:43:44;;;;;;;40.50;15.77;;;;;;;;;;6215264;28;20053;-57
2022/09/16 07:46:45;;;;;;;40.08;16.08;;;;;;;;;;6216314;28;20065;-54
2022/09/16 07:49:46;;;;;;;34.73;15.80;;;;;;;;;;6216612;28;20038;-53
2022/09/16 07:52:46;;;;;;;37.25;16.48;;;;;;;;;;6216256;28;20053;-54
2022/09/16 07:55:47;;;;;;;35.55;15.43;;;;;;;;;;6214982;28;20041;-49
2022/09/16 07:58:48;;;;;;;35.97;17.30;;;;;;;;;;6216000;28;20049;-50
2022/09/16 08:01:49;;;;;;;32.92;15.93;;;;;;;;;;6215983;28;20513;-52
2022/09/16 08:04:49;;;;;;;35.20;15.27;;;;;;;;;;6214600;28;20083;-57
2022/09/16 08:07:50;;;;;;;33.05;13.88;;;;;;;;;;6215901;28;20062;-49
2022/09/16 08:10:57;;;;;;;31.13;14.75;;;;;;;;;;6215986;28;20046;-52
2022/09/16 08:13:58;;;;;;;31.52;13.73;;;;;;;;;;6196973;28;20053;-50
2022/09/16 08:17:00;;;;;;;29.80;14.05;;;;;;;;;;6215371;28;20050;-53
2022/09/16 08:20:04;;;;;;;28.90;13.88;;;;;;;;;;6213428;28;20054;-53
2022/09/16 08:23:06;;;;;;;31.08;14.38;;;;;;;;;;6208265;28;20073;-65
2022/09/16 08:26:09;;;;;;;29.50;14.68;;;;;;;;;;6209322;28;20045;-50
2022/09/16 08:29:10;;;;;;;29.98;13.55;;;;;;;;;;6214244;28;20448;-59
2022/09/16 08:32:10;;;;;;;25.23;12.77;;;;;;;;;;6212013;28;20136;-62
2022/09/16 08:35:13;;;;;;;22.38;11.43;;;;;;;;;;6210521;28;20042;-64
2022/09/16 08:38:13;;;;;;;;;;;;;;;;;;6216103;28;20057;-60
2022/09/16 08:41:50;;;;;;;19.85;11.40;;;;;;;;;;6216382;28;20493;-51
2022/09/16 08:44:59;;;;;;;20.25;10.30;;;;;;;;;;6215380;28;20450;-55
2022/09/16 08:48:21;;;;;;;21.50;11.70;;;;;;;;;;6207130;28;20457;-53
2022/09/16 08:51:21;;;;;;;24.20;11.02;;;;;;;;;;6209084;28;20049;-59
2022/09/16 08:54:45;;;;;;;25.52;11.57;;;;;;;;;;6208246;28;20050;-53
2022/09/16 08:57:55;;;;;;;22.83;11.15;;;;;;;;;;6209133;28;20073;-57
2022/09/16 09:01:02;;;;;;;19.52;10.88;;;;;;;;;;6207483;28;20140;-53
2022/09/16 09:04:03;;;;;;;20.23;9.93;;;;;;;;;;6208915;28;20050;-57
2022/09/16 09:07:41;;;;;;;21.03;10.13;;;;;;;;;;6209991;28;20046;-51
2022/09/16 09:10:48;;;;;;;18.55;9.98;;;;;;;;;;6208816;28;20064;-52
2022/09/16 09:14:23;;;;;;;21.60;9.80;;;;;;;;;;6208388;28;20137;-52
2022/09/16 09:17:39;;;;;;;19.08;9.95;;;;;;;;;;6210069;28;20054;-52
2022/09/16 09:21:12;;;;;;;16.67;9.73;;;;;;;;;;6210301;28;20910;-53
2022/09/16 09:24:29;;;;;;;17.15;9.30;;;;;;;;;;6213882;28;20127;-57
2022/09/16 09:27:57;;;;;;;22.10;10.15;;;;;;;;;;6210802;28;20501;-53
2022/09/16 09:31:26;;;;;;;18.90;9.43;;;;;;;;;;6205693;28;20916;-51
2022/09/16 09:34:44;;;;;;;15.43;8.98;;;;;;;;;;6191558;28;20132;-51
2022/09/16 09:37:47;;;;;;;18.00;8.07;;;;;;;;;;6213025;28;20480;-50
2022/09/16 09:40:55;;;;;;;13.88;7.72;;;;;;;;;;6212502;28;20085;-52
2022/09/16 09:44:26;;;;;;;13.02;8.63;;;;;;;;;;6211813;28;20587;-57
2022/09/16 09:47:35;;;;;;;21.40;10.90;;;;;;;;;;6201828;28;20076;-49
2022/09/16 09:50:46;;;;;;;25.90;11.55;;;;;;;;;;6212985;28;20069;-51
2022/09/16 09:53:51;;;;;;;28.70;15.57;;;;;;;;;;6211365;28;20080;-55
2022/09/16 09:57:02;;;;;;;26.23;14.02;;;;;;;;;;6211168;28;20092;-52
2022/09/16 10:00:09;;;;;;;28.42;14.20;;;;;;;;;;6210280;28;20140;-54
2022/09/16 10:03:13;;;;;;;26.25;13.15;;;;;;;;;;6213148;28;20058;-53
2022/09/16 10:06:14;;;;;;;32.13;14.35;;;;;;;;;;6211706;28;20088;-54
2022/09/16 10:09:17;;;;;;;26.83;14.68;;;;;;;;;;6211609;28;20068;-54
2022/09/16 10:12:34;;;;;;;30.75;14.70;;;;;;;;;;6214265;28;20516;-51
2022/09/16 10:15:35;;;;;;;31.92;14.88;;;;;;;;;;6212722;28;20185;-52
2022/09/16 10:18:36;;;;;;;29.90;13.93;;;;;;;;;;6213697;28;20088;-53
2022/09/16 10:21:40;;;;;;;32.40;14.68;;;;;;;;;;6217948;28;20058;-53
2022/09/16 10:24:42;;;;;;;32.35;14.45;;;;;;;;;;6218226;28;20192;-51
2022/09/16 10:27:58;;;;;;;25.73;14.40;;;;;;;;;;6218071;28;20057;-50
2022/09/16 10:31:00;;;;;;;22.20;13.32;;;;;;;;;;6215957;28;20088;-59
2022/09/16 10:34:03;;;;;;;27.23;13.93;;;;;;;;;;6211527;28;20486;-51
2022/09/16 10:37:16;;;;;;;24.90;13.18;;;;;;;;;;6214936;28;20334;-51
2022/09/16 10:40:18;;;;;;;23.90;12.18;;;;;;;;;;6214067;28;20046;-50
2022/09/16 10:43:20;;;;;;;26.88;13.05;;;;;;;;;;6212641;28;20054;-50
2022/09/16 10:46:20;;;;;;;23.63;11.55;;;;;;;;;;6211612;28;20034;-54
2022/09/16 10:49:30;;;;;;;25.23;13.93;;;;;;;;;;6209999;28;20048;-60
2022/09/16 10:52:40;;;;;;;23.38;12.50;;;;;;;;;;6216942;28;20042;-55
2022/09/16 10:55:41;;;;;;;24.38;11.63;;;;;;;;;;6217813;28;20137;-53
2022/09/16 10:58:41;;;;;;;26.58;11.32;;;;;;;;;;6216529;28;20033;-59
2022/09/16 11:02:21;;;;;;;18.63;10.80;;;;;;;;;;6216584;28;20049;-55
2022/09/16 11:05:33;;;;;;;21.17;10.57;;;;;;;;;;6187416;28;20611;-60
2022/09/16 11:08:43;;;;;;;;;;;;;;;;;;6217852;28;20132;-53
2022/09/16 11:12:02;;;;;;;20.63;10.40;;;;;;;;;;6217557;28;19922;-56
2022/09/16 11:15:27;;;;;;;19.85;10.00;;;;;;;;;;6216123;28;20056;-52
2022/09/16 11:18:40;;;;;;;26.08;11.60;;;;;;;;;;6217299;28;20061;-52
2022/09/16 11:22:00;;;;;;;24.60;12.23;;;;;;;;;;6215680;28;20124;-50
2022/09/16 11:25:18;;;;;;;22.65;11.90;;;;;;;;;;6217236;28;20054;-54
2022/09/16 11:28:31;;;;;;;21.13;10.63;;;;;;;;;;6215663;28;20127;-50
2022/09/16 11:31:38;;;;;;;;;;;;;;;;;;6213145;28;20097;-56
2022/09/16 11:34:54;;;;;;;13.65;8.50;;;;;;;;;;6210756;28;20040;-50
2022/09/16 11:38:27;;;;;;;16.63;8.68;;;;;;;;;;6210537;28;20080;-60
2022/09/16 11:41:48;;;;;;;18.23;9.50;;;;;;;;;;6179588;28;20519;-53
2022/09/16 11:45:10;;;;;;;17.40;8.57;;;;;;;;;;6211845;28;20119;-50
2022/09/16 11:48:46;;;;;;;18.23;8.82;;;;;;;;;;6211008;28;20045;-50
2022/09/16 11:51:55;;;;;;;18.65;9.50;;;;;;;;;;6209770;28;20052;-50
2022/09/16 11:55:28;;;;;;;18.40;9.25;;;;;;;;;;6209027;28;20046;-60
2022/09/16 11:58:35;;;;;;;17.63;9.05;;;;;;;;;;6203675;28;20145;-52
2022/09/16 12:01:42;;;;;;;15.57;8.85;;;;;;;;;;6210459;28;20602;-60
2022/09/16 12:04:55;;;;;;;18.45;8.60;;;;;;;;;;6213143;28;20069;-54
2022/09/16 12:08:11;;;;;;;15.27;7.85;;;;;;;;;;6214450;28;20088;-58
2022/09/16 12:11:20;;;;;;;15.20;7.93;;;;;;;;;;6214546;28;20037;-54
2022/09/16 12:14:30;;;;;;;17.90;8.07;;;;;;;;;;6215789;28;20100;-61
2022/09/16 12:17:35;;;;;;;15.25;6.93;;;;;;;;;;6215832;28;20056;-50
2022/09/16 12:20:41;;;;;;;14.23;7.65;;;;;;;;;;6213402;28;20519;-65
2022/09/16 12:23:46;;;;;;;12.45;7.22;;;;;;;;;;6215101;28;20041;-54
2022/09/16 12:27:19;;;;;;;12.68;6.90;;;;;;;;;;6215890;28;20146;-50
2022/09/16 12:30:27;;;;;;;10.48;6.28;;;;;;;;;;6212388;28;20056;-61
2022/09/16 12:33:33;;;;;;;11.90;6.35;;;;;;;;;;6214479;28;20053;-54
2022/09/16 12:36:38;;;;;;;10.00;5.93;;;;;;;;;;6214527;28;20053;-55
2022/09/16 12:39:39;;;;;;;13.07;6.70;;;;;;;;;;6215201;28;20148;-56
2022/09/16 12:43:18;;;;;;;14.88;6.57;;;;;;;;;;6215058;28;20415;-54
2022/09/16 12:46:21;;;;;;;14.75;6.63;;;;;;;;;;6214013;28;20046;-65
2022/09/16 12:49:55;;;;;;;12.88;6.70;;;;;;;;;;6210141;28;20038;-54
2022/09/16 12:52:59;;;;;;;17.13;7.68;;;;;;;;;;6214911;28;20572;-53
2022/09/16 12:56:24;;;;;;;12.93;7.03;;;;;;;;;;6190202;28;20045;-57
2022/09/16 13:00:02;;;;;;;13.57;7.00;;;;;;;;;;6197261;28;20050;-52
2022/09/16 13:03:13;;;;;;;15.52;7.28;;;;;;;;;;6196356;28;20084;-50
2022/09/16 13:06:29;;;;;;;12.63;7.47;;;;;;;;;;6198396;28;20133;-49
2022/09/16 13:09:35;;;;;;;12.65;6.95;;;;;;;;;;6198022;28;20050;-49
2022/09/16 13:12:35;;;;;;;11.70;6.88;;;;;;;;;;6197542;28;20528;-49
2022/09/16 13:15:38;;;;;;;12.55;7.22;;;;;;;;;;6193846;28;20050;-49
2022/09/16 13:18:48;;;;;;;18.75;7.00;;;;;;;;;;6197662;28;20205;-47
2022/09/16 13:21:56;;;;;;;14.55;7.30;;;;;;;;;;6196390;28;20144;-49
2022/09/16 13:25:07;;;;;;;12.68;7.10;;;;;;;;;;6195603;28;20056;-48
2022/09/16 13:28:39;;;;;;;12.07;6.18;;;;;;;;;;6199525;28;20555;-47
2022/09/16 13:31:46;;;;;;;11.50;6.85;;;;;;;;;;6197445;28;20046;-59
2022/09/16 13:34:46;;;;;;;11.88;7.10;;;;;;;;;;6194104;28;20050;-48
2022/09/16 13:37:53;;;;;;;16.27;6.70;;;;;;;;;;6197661;28;20069;-48
2022/09/16 13:41:01;;;;;;;11.15;7.20;;;;;;;;;;6198602;28;20053;-49
2022/09/16 13:44:38;;;;;;;15.68;8.00;;;;;;;;;;6195449;28;20066;-48
2022/09/16 13:47:48;;;;;;;12.82;8.02;;;;;;;;;;6196269;28;20077;-47
2022/09/16 13:50:59;;;;;;;16.48;7.90;;;;;;;;;;6195119;28;20165;-51
2022/09/16 13:54:02;;;;;;;14.60;8.47;;;;;;;;;;6193518;28;20046;-55
2022/09/16 13:57:31;;;;;;;15.15;8.70;;;;;;;;;;6196410;28;20127;-50
2022/09/16 14:00:52;;;;;;;16.90;8.52;;;;;;;;;;6197041;28;20065;-53
2022/09/16 14:04:32;;;;;;;17.63;7.95;;;;;;;;;;6193356;28;20045;-52
2022/09/16 14:07:50;;;;;;;15.73;8.45;;;;;;;;;;6132363;28;20051;-53
2022/09/16 14:10:57;;;;;;;16.20;8.63;;;;;;;;;;6201016;28;20960;-48
2022/09/16 14:14:25;;;;;;;12.27;7.55;;;;;;;;;;6196257;28;20052;-51
2022/09/16 14:17:37;;;;;;;14.93;8.30;;;;;;;;;;6193317;28;20610;-50
2022/09/16 14:20:49;;;;;;;17.30;7.97;;;;;;;;;;6196938;28;20096;-51
2022/09/16 14:23:49;;;;;;;16.33;8.40;;;;;;;;;;6197314;28;20052;-55
2022/09/16 14:26:51;;;;;;;18.27;8.98;;;;;;;;;;6201306;28;20046;-62
2022/09/16 14:29:57;;;;;;;19.42;10.25;;;;;;;;;;6199655;28;20073;-54
2022/09/16 14:32:57;;;;;;;14.27;8.65;;;;;;;;;;6197728;28;20562;-48
2022/09/16 14:35:59;;;;;;;16.58;8.30;;;;;;;;;;6197233;28;20053;-48
2022/09/16 14:39:06;;;;;;;20.92;9.80;;;;;;;;;;6196968;28;20100;-48
2022/09/16 14:42:06;;;;;;;16.00;8.50;;;;;;;;;;6194737;28;20145;-48
2022/09/16 14:45:15;;;;;;;15.30;8.13;;;;;;;;;;6194345;28;20057;-49
2022/09/16 14:48:18;;;;;;;15.50;8.48;;;;;;;;;;6198052;28;20160;-48
2022/09/16 14:51:22;;;;;;;18.08;8.70;;;;;;;;;;6199421;28;20054;-47
2022/09/16 14:54:25;;;;;;;21.00;9.13;;;;;;;;;;6199460;28;20038;-49
2022/09/16 14:57:28;;;;;;;39.67;10.95;;;;;;;;;;6196861;28;20057;-48
2022/09/16 15:00:42;;;;;;;21.33;8.35;;;;;;;;;;6195389;28;20045;-49
2022/09/16 15:03:56;;;;;;;21.27;9.48;;;;;;;;;;6196273;28;20057;-48
2022/09/16 15:07:06;;;;;;;17.00;7.88;;;;;;;;;;6195355;28;20064;-48
2022/09/16 15:10:20;;;;;;;19.13;8.10;;;;;;;;;;6195488;28;20168;-60
2022/09/16 15:13:36;;;;;;;16.88;7.60;;;;;;;;;;6195002;28;20081;-47
2022/09/16 15:16:46;;;;;;;13.57;6.95;;;;;;;;;;6194662;28;20050;-60
2022/09/16 15:19:55;;;;;;;16.65;7.40;;;;;;;;;;6197121;28;20490;-50
2022/09/16 15:22:56;;;;;;;14.20;8.00;;;;;;;;;;6200829;28;20082;-50
2022/09/16 15:26:23;;;;;;;18.70;9.68;;;;;;;;;;6194537;28;20393;-53
2022/09/16 15:29:24;;;;;;;20.10;10.57;;;;;;;;;;6196562;28;20081;-56
2022/09/16 15:32:30;;;;;;;19.38;8.43;;;;;;;;;;6199146;28;20497;-57
2022/09/16 15:35:34;;;;;;;19.48;8.85;;;;;;;;;;6196209;28;20077;-53
2022/09/16 15:38:34;;;;;;;20.52;8.95;;;;;;;;;;6199354;28;20061;-58
2022/09/16 15:41:35;;;;;;;19.83;9.43;;;;;;;;;;6197552;28;20450;-50
2022/09/16 15:44:37;;;;;;;23.35;8.02;;;;;;;;;;6195167;28;20065;-51
2022/09/16 15:47:47;;;;;;;;;;;;;;;;;;6198889;28;20096;-49
2022/09/16 15:50:55;;;;;;;16.65;8.35;;;;;;;;;;6201932;28;20453;-58
2022/09/16 15:54:04;;;;;;;25.30;11.52;;;;;;;;;;6198346;28;20073;-61
2022/09/16 15:57:16;;;;;;;30.15;13.68;;;;;;;;;;6199714;28;20257;-52
2022/09/16 16:00:16;;;;;;;;;;;;;;;;;;6197121;28;20062;-53
2022/09/16 16:03:19;;;;;;;27.35;12.57;;;;;;;;;;6197744;28;20012;-52
2022/09/16 16:06:40;;;;;;;18.90;9.40;;;;;;;;;;6197663;28;20042;-56
2022/09/16 16:09:42;;;;;;;15.80;7.97;;;;;;;;;;6196853;28;20049;-52
2022/09/16 16:12:50;;;;;;;17.00;8.77;;;;;;;;;;6200105;28;20089;-50
2022/09/16 16:15:51;;;;;;;36.50;14.43;;;;;;;;;;6197398;28;20192;-57
2022/09/16 16:18:52;;;;;;;76.73;24.97;;;;;;;;;;6201064;28;20493;-53
2022/09/16 16:21:52;;;;;;;64.28;21.52;;;;;;;;;;6197667;28;20415;-53
2022/09/16 16:24:53;;;;;;;45.78;15.90;;;;;;;;;;6198060;28;20038;-55
2022/09/16 16:27:55;;;;;;;21.60;10.55;;;;;;;;;;6198384;28;20517;-59
2022/09/16 16:31:10;;;;;;;18.88;8.85;;;;;;;;;;6198470;28;20046;-49
2022/09/16 16:34:11;;;;;;;18.25;9.35;;;;;;;;;;6196869;28;20141;-58
2022/09/16 16:37:14;;;;;;;20.63;10.68;;;;;;;;;;6197369;28;20135;-59
2022/09/16 16:40:14;;;;;;;35.22;12.85;;;;;;;;;;6199078;28;20073;-50
2022/09/16 16:43:15;;;;;;;28.65;12.05;;;;;;;;;;6196784;28;20048;-58
2022/09/16 16:46:16;;;;;;;25.00;9.88;;;;;;;;;;6197430;28;20573;-53
2022/09/16 16:49:17;;;;;;;20.90;9.65;;;;;;;;;;6199503;28;20065;-52
2022/09/16 16:52:18;;;;;;;20.23;9.65;;;;;;;;;;6198796;28;20050;-51
2022/09/16 16:55:18;;;;;;;19.30;8.30;;;;;;;;;;6197517;28;20038;-58
2022/09/16 16:58:19;;;;;;;15.43;7.88;;;;;;;;;;6198405;28;20515;-50
2022/09/16 17:01:19;;;;;;;17.70;8.35;;;;;;;;;;6199001;28;20042;-53
2022/09/16 17:04:21;;;;;;;20.20;8.98;;;;;;;;;;6196159;28;20060;-61
2022/09/16 17:07:22;;;;;;;23.20;9.23;;;;;;;;;;6199009;28;20634;-54
2022/09/16 17:10:22;;;;;;;30.50;12.23;;;;;;;;;;6199203;28;20099;-54
2022/09/16 17:13:23;;;;;;;56.00;17.55;;;;;;;;;;6201561;28;20072;-50
2022/09/16 17:16:24;;;;;;;44.95;14.55;;;;;;;;;;6197884;28;20542;-56
2022/09/16 17:19:25;;;;;;;27.98;11.57;;;;;;;;;;6197196;28;20111;-56
2022/09/16 17:22:26;;;;;;;25.38;11.30;;;;;;;;;;6197663;28;20050;-50
2022/09/16 17:25:27;;;;;;;38.30;21.48;;;;;;;;;;6197153;28;20135;-52
2022/09/16 17:28:28;;;;;;;35.10;19.48;;;;;;;;;;6197365;28;20038;-60
2022/09/16 17:31:31;;;;;;;29.02;14.25;;;;;;;;;;6197410;28;20045;-53
2022/09/16 17:34:32;;;;;;;26.98;13.32;;;;;;;;;;6197229;28;20469;-52
2022/09/16 17:37:32;;;;;;;21.27;11.07;;;;;;;;;;6196125;28;20640;-53
2022/09/16 17:40:33;;;;;;;21.80;11.57;;;;;;;;;;6192045;28;20058;-48
2022/09/16 17:43:34;;;;;;;19.83;10.02;;;;;;;;;;6192137;28;20062;-56
2022/09/16 17:46:35;;;;;;;61.87;24.33;;;;;;;;;;6199414;28;20534;-54
2022/09/16 17:49:35;;;;;;;120.63;50.50;;;;;;;;;;6193980;28;20042;-48
2022/09/16 17:52:36;;;;;;;22.30;10.10;;;;;;;;;;6197057;28;20081;-49
2022/09/16 17:55:36;;;;;;;53.28;31.23;;;;;;;;;;6197207;28;20505;-50
2022/09/16 17:58:39;;;;;;;68.07;41.38;;;;;;;;;;6199862;28;20081;-52
2022/09/16 18:01:40;;;;;;;31.17;18.85;;;;;;;;;;6197421;28;20054;-55
2022/09/16 18:04:42;;;;;;;31.70;18.35;;;;;;;;;;6200302;28;20080;-52
2022/09/16 18:07:45;;;;;;;31.10;14.43;;;;;;;;;;6197205;28;20058;-52
2022/09/16 18:10:51;;;;;;;25.63;12.45;;;;;;;;;;6195032;28;20176;-58
2022/09/16 18:13:57;;;;;;;23.23;10.95;;;;;;;;;;6198787;28;20164;-57
2022/09/16 18:16:58;;;;;;;22.75;10.07;;;;;;;;;;6197081;28;20192;-49
2022/09/16 18:19:59;;;;;;;22.95;10.15;;;;;;;;;;6196286;28;20041;-53